Latest Weather Observations for Rocky Gully South

IDW60801

Issued at 9:03 pm WST Tuesday 28 January 2020 (issued every 10 minutes, with the page automatically refreshed every 10 minutes)

About weather observations | Map of weather stations | Latest weather observations for WA | Other Formats
Station Details ID: 009964 Name: ROCKY GULLY Lat: -34.57 Lon: 117.01 Height: 250.0 m
Data from the previous 72 hours. | See also: Recent months at Rocky Gully South
Date/Time
WST
Temp
°C
App
Temp
°C
Dew
Point
°C
Rel
Hum
%
Delta-T
°C
Wind Press
QNH
hPa
Press
MSL
hPa
Rain since
9am
mm
Dir  Spd
km/h
Gust
km/h
Spd
kts
Gust
kts
28/09:00pm 18.2 18.7 14.9 81 1.9 SSE 6 11 3 6 - - 0.0
28/08:30pm 19.0 19.3 15.1 78 2.3 S 7 11 4 6 - - 0.0
28/08:00pm 19.8 20.1 15.0 74 2.8 S 7 13 4 7 - - 0.0
28/07:30pm 21.0 21.0 15.1 69 3.5 SSE 9 17 5 9 - - 0.0
28/07:00pm 22.3 22.0 15.4 65 4.2 S 11 20 6 11 - - 0.0
28/06:30pm 23.6 22.4 15.1 59 5.1 S 15 24 8 13 - - 0.0
28/06:00pm 25.6 24.9 15.3 53 6.3 S 13 22 7 12 - - 0.0
28/05:30pm 27.2 26.0 13.9 44 8.0 S 13 22 7 12 - - 0.0
28/05:00pm 29.6 27.4 10.7 31 10.9 SSW 13 22 7 12 - - 0.0
28/04:30pm 30.0 27.6 11.5 32 10.8 SSW 15 24 8 13 - - 0.0
28/04:00pm 30.9 28.8 12.3 32 11.1 SW 15 24 8 13 - - 0.0
28/03:30pm 31.4 29.4 12.7 32 11.2 SW 15 24 8 13 - - 0.0
28/03:00pm 32.4 30.5 13.1 31 11.7 SSW 15 26 8 14 - - 0.0
28/02:30pm 32.3 30.3 14.0 33 11.2 SSW 17 35 9 19 - - 0.0
28/02:00pm 32.0 30.4 15.1 36 10.5 S 17 28 9 15 - - 0.0
28/01:30pm 34.3 33.0 12.6 27 13.1 SSE 11 26 6 14 - - 0.0
28/01:00pm 36.5 32.3 5.7 15 17.0 WNW 17 30 9 16 - - 0.0
28/12:30pm 35.5 32.8 9.1 20 15.2 WNW 13 26 7 14 - - 0.0
28/12:00pm 33.5 32.2 11.4 26 13.1 SSW 9 15 5 8 - - 0.0
28/11:30am 33.7 32.5 11.5 26 13.2 W 9 17 5 9 - - 0.0
28/11:00am 33.1 32.1 11.0 26 13.0 NNW 7 11 4 6 - - 0.0
28/10:30am 31.7 31.7 13.5 33 11.1 W 6 13 3 7 - - 0.0
28/10:00am 29.3 29.2 13.9 39 9.3 NE 7 9 4 5 - - 0.0
28/09:30am 27.0 27.3 15.1 48 7.3 SSW 7 13 4 7 - - 0.0
28/09:00am 25.6 26.4 14.7 51 6.6 SE 4 7 2 4 - - 0.0
28/08:30am 23.3 25.0 16.1 64 4.4 SE 2 7 1 4 - - 0.0
28/08:00am 21.7 23.7 16.0 70 3.5 CALM 0 0 0 0 - - 0.0
28/07:30am 19.5 22.0 17.3 87 1.4 CALM 0 0 0 0 - - 0.0
28/07:00am 14.9 16.0 13.4 91 0.8 CALM 0 0 0 0 - - 0.0
28/06:30am 13.3 13.9 11.9 91 0.8 CALM 0 0 0 0 - - 0.0
28/06:00am 12.3 12.6 10.9 91 0.7 CALM 0 0 0 0 - - 0.0
28/05:30am 13.0 13.4 11.4 90 0.9 CALM 0 0 0 0 - - 0.0
28/05:00am 12.7 13.1 11.1 90 0.9 CALM 0 0 0 0 - - 0.0
28/04:30am 13.0 13.4 11.2 89 1.0 CALM 0 0 0 0 - - 0.0
28/04:00am 13.8 14.4 12.0 89 1.0 CALM 0 0 0 0 - - 0.0
28/03:30am 14.7 15.6 12.9 89 1.0 CALM 0 2 0 1 - - 0.0
28/03:00am 15.2 16.2 13.2 88 1.1 CALM 0 0 0 0 - - 0.0
28/02:30am 16.0 16.9 14.0 88 1.1 NE 2 7 1 4 - - 0.0
28/02:00am 16.3 16.5 14.1 87 1.3 NNE 6 11 3 6 - - 0.0
28/01:30am 16.9 17.1 14.7 87 1.3 NE 7 11 4 6 - - 0.0
28/01:00am 16.9 17.1 14.7 87 1.3 NE 7 13 4 7 - - 0.0
28/12:30am 16.8 17.0 14.1 84 1.6 NE 6 11 3 6 - - 0.0
28/12:00am 16.9 17.0 13.8 82 1.8 E 6 11 3 6 - - 0.0
 
Date/Time
WST
Temp
°C
App
Temp
°C
Dew
Point
°C
Rel
Hum
%
Delta-T
°C
Wind Press
QNH
hPa
Press
MSL
hPa
Rain since
9am
mm
Dir  Spd
km/h
Gust
km/h
Spd
kts
Gust
kts
27/11:30pm 16.9 17.5 13.0 78 2.2 SE 2 7 1 4 - - 0.0
27/11:00pm 17.5 17.2 12.8 74 2.7 ESE 6 11 3 6 - - 0.0
27/10:30pm 17.5 16.9 11.8 69 3.2 SE 6 9 3 5 - - 0.0
27/10:00pm 17.8 17.5 11.4 66 3.5 SE 4 7 2 4 - - 0.0
27/09:30pm 18.4 17.6 11.2 63 4.0 SE 6 11 3 6 - - 0.0
27/09:00pm 19.2 18.3 11.3 60 4.4 SSE 7 13 4 7 - - 0.0
27/08:30pm 20.0 19.1 11.5 58 4.7 SSE 7 13 4 7 - - 0.0
27/08:00pm 20.8 19.9 11.4 55 5.3 SSE 7 13 4 7 - - 0.0
27/07:30pm 21.8 20.7 12.1 54 5.5 SSE 9 13 5 7 - - 0.0
27/07:00pm 22.8 21.8 13.3 55 5.5 S 11 17 6 9 - - 0.0
27/06:30pm 23.6 21.9 13.5 53 5.9 S 15 20 8 11 - - 0.0
27/06:00pm 25.3 24.2 13.2 47 7.1 S 11 20 6 11 - - 0.0
27/05:30pm 25.7 23.4 12.9 45 7.5 S 17 33 9 18 - - 0.0
27/05:00pm 27.1 25.6 13.1 42 8.3 S 13 24 7 13 - - 0.0
27/04:30pm 27.6 25.2 13.9 43 8.2 SSE 19 30 10 16 - - 0.0
27/04:00pm 28.9 26.7 13.2 38 9.4 SSE 17 32 9 17 - - 0.0
27/03:30pm 29.1 26.5 12.1 35 10.0 SSE 17 32 9 17 - - 0.0
27/03:00pm 31.6 28.7 12.4 31 11.5 SSE 19 33 10 18 - - 0.0
27/02:30pm 34.2 32.4 10.7 24 13.8 SW 11 24 6 13 - - 0.0
27/02:00pm 35.4 33.3 6.6 17 16.0 WSW 7 13 4 7 - - 0.0
27/01:30pm 34.6 31.6 6.0 17 15.7 WNW 11 19 6 10 - - 0.0
27/01:00pm 34.5 32.2 7.5 19 15.1 WNW 9 20 5 11 - - 0.0
27/12:30pm 33.3 31.5 8.0 21 14.2 N 7 13 4 7 - - 0.0
27/12:00pm 33.2 31.2 8.6 22 14.0 NE 9 17 5 9 - - 0.0
27/11:30am 31.1 29.0 8.2 24 12.8 N 9 15 5 8 - - 0.0
27/11:00am 30.2 28.6 8.6 26 12.1 NNE 7 15 4 8 - - 0.0
27/10:30am 28.6 26.8 9.3 30 10.8 NNE 9 20 5 11 - - 0.0
27/10:00am 26.9 25.6 9.3 33 9.8 NW 6 13 3 7 - - 0.0
27/09:30am 26.4 24.9 9.3 34 9.5 ESE 7 13 4 7 - - 0.0
27/09:00am 24.0 22.6 9.6 40 7.9 ENE 7 11 4 6 - - 0.2
27/08:30am 22.5 21.3 9.6 44 7.1 E 6 11 3 6 - - 0.2
27/08:00am 20.9 20.2 11.3 54 5.4 ENE 6 11 3 6 - - 0.2
27/07:30am 18.9 18.5 13.1 69 3.3 NNE 7 13 4 7 - - 0.2
27/07:00am 16.6 17.0 14.8 89 1.0 NNE 6 13 3 7 - - 0.2
27/06:30am 14.6 14.3 13.3 92 0.7 NNE 7 11 4 6 - - 0.2
27/06:00am 13.6 13.1 12.2 91 0.8 NNE 6 9 3 5 - - 0.2
27/05:30am 13.6 13.0 12.2 91 0.8 NNE 7 11 4 6 - - 0.2
27/05:00am 13.6 13.5 12.0 90 0.9 NNE 4 7 2 4 - - 0.2
27/04:30am 12.8 12.3 10.9 88 1.0 NNE 4 7 2 4 - - 0.2
27/04:00am 13.4 13.9 11.5 88 1.0 CALM 0 6 0 3 - - 0.2
27/03:30am 12.9 13.2 10.8 87 1.1 CALM 0 6 0 3 - - 0.2
27/03:00am 13.5 12.8 11.4 87 1.1 ENE 6 9 3 5 - - 0.2
27/02:30am 13.5 13.6 11.4 87 1.1 E 2 7 1 4 - - 0.2
27/02:00am 13.8 13.5 11.5 86 1.2 ESE 4 9 2 5 - - 0.2
27/01:30am 13.5 13.7 10.7 83 1.5 CALM 0 0 0 0 - - 0.2
27/01:00am 13.6 13.7 10.2 80 1.8 CALM 0 0 0 0 - - 0.2
27/12:30am 14.8 15.2 11.4 80 1.8 CALM 0 6 0 3 - - 0.2
27/12:00am 14.9 14.2 11.3 79 1.9 SSE 6 9 3 5 - - 0.2
 
Date/Time
WST
Temp
°C
App
Temp
°C
Dew
Point
°C
Rel
Hum
%
Delta-T
°C
Wind Press
QNH
hPa
Press
MSL
hPa
Rain since
9am
mm
Dir  Spd
km/h
Gust
km/h
Spd
kts
Gust
kts
26/11:30pm 15.1 14.8 11.3 78 2.1 ESE 4 9 2 5 - - 0.2
26/11:00pm 15.1 15.2 10.3 73 2.5 CALM 0 6 0 3 - - 0.2
26/10:30pm 15.8 15.6 10.3 70 2.9 E 2 7 1 4 - - 0.2
26/10:00pm 16.2 15.1 9.8 66 3.4 ESE 6 9 3 5 - - 0.2
26/09:30pm 16.9 15.4 9.3 61 4.0 SSE 7 11 4 6 - - 0.2
26/09:00pm 17.8 16.4 9.4 58 4.5 SSE 7 15 4 8 - - 0.2
26/08:30pm 18.4 16.9 10.5 60 4.3 SSE 9 15 5 8 - - 0.2
26/08:00pm 19.3 17.8 9.2 52 5.4 SSE 7 15 4 8 - - 0.2
26/07:30pm 20.2 17.8 8.8 48 6.1 SSE 11 17 6 9 - - 0.2
26/07:00pm 21.5 18.5 7.7 41 7.2 SSE 13 22 7 12 - - 0.2
26/06:30pm 22.9 20.0 9.7 43 7.2 SSE 15 24 8 13 - - 0.2
26/06:00pm 24.0 21.4 10.7 43 7.5 S 15 28 8 15 - - 0.2
26/05:30pm 25.7 24.0 11.1 40 8.3 SSE 11 20 6 11 - - 0.2
26/05:00pm 26.9 24.9 11.4 38 8.9 SSE 13 22 7 12 - - 0.2
26/04:30pm 28.4 27.2 12.7 38 9.3 S 11 20 6 11 - - 0.2
26/04:00pm 29.2 27.2 12.6 36 9.9 SSE 15 26 8 14 - - 0.2
26/03:30pm 29.6 26.9 11.6 33 10.5 SSE 17 32 9 17 - - 0.2
26/03:00pm 31.5 30.1 10.8 28 12.1 SSW 9 15 5 8 - - 0.2
26/02:30pm 30.2 28.3 9.1 27 11.9 SSW 9 19 5 10 - - 0.2
26/02:00pm 29.9 27.8 9.9 29 11.4 SSE 11 20 6 11 - - 0.2
26/01:30pm 29.4 26.9 6.7 24 12.2 SSW 9 15 5 8 - - 0.2
26/01:00pm 29.4 26.5 6.7 24 12.2 SSE 11 19 6 10 - - 0.2
26/12:30pm 28.1 26.3 9.4 31 10.5 SW 9 19 5 10 - - 0.2
26/12:00pm 26.2 25.6 12.3 42 8.1 ESE 7 13 4 7 - - 0.0
26/11:30am 24.8 24.6 14.6 53 6.1 SW 9 15 5 8 - - 0.0
26/11:00am 23.3 23.6 15.1 60 4.9 ESE 7 11 4 6 - - 0.0
26/10:30am 21.5 21.9 15.3 68 3.7 ENE 7 15 4 8 - - 0.0
26/10:00am 19.8 20.3 15.0 74 2.8 ENE 6 13 3 7 - - 0.0
26/09:30am 19.0 20.4 15.5 80 2.1 SE 2 7 1 4 - - 0.0
26/09:00am 17.8 18.8 15.4 86 1.4 N 4 9 2 5 - - 0.2
26/08:30am 17.2 17.7 15.5 90 1.0 NE 7 13 4 7 - - 0.2
26/08:00am 16.3 16.8 15.0 92 0.8 E 6 9 3 5 - - 0.2
26/07:30am 15.4 15.6 14.3 93 0.6 E 6 9 3 5 - - 0.2
26/07:00am 14.9 16.1 13.9 94 0.6 CALM 0 0 0 0 - - 0.2
26/06:30am 13.7 14.6 12.8 94 0.5 CALM 0 0 0 0 - - 0.2
26/06:00am 12.9 13.5 12.0 94 0.5 CALM 0 0 0 0 - - 0.2
26/05:30am 12.5 13.0 11.6 94 0.5 CALM 0 0 0 0 - - 0.2
26/05:00am 12.4 12.8 11.3 93 0.6 CALM 0 0 0 0 - - 0.2
26/04:30am 13.0 13.6 11.9 93 0.6 CALM 0 0 0 0 - - 0.2
26/04:00am 13.0 13.6 11.9 93 0.6 CALM 0 6 0 3 - - 0.2
26/03:30am 13.1 13.7 12.0 93 0.6 CALM 0 0 0 0 - - 0.2
26/03:00am 13.2 13.9 12.1 93 0.6 CALM 0 0 0 0 - - 0.2
26/02:30am 13.7 14.5 12.6 93 0.6 CALM 0 0 0 0 - - 0.2
26/02:00am 13.9 14.7 12.6 92 0.7 CALM 0 0 0 0 - - 0.2
26/01:30am 14.6 15.3 13.3 92 0.7 SE 2 7 1 4 - - 0.2
26/01:00am 15.1 15.9 13.8 92 0.7 SE 2 7 1 4 - - 0.2
26/12:30am 15.5 15.1 14.2 92 0.7 SSE 9 15 5 8 - - 0.2
26/12:00am 15.9 15.7 14.6 92 0.8 SSE 9 15 5 8 - - 0.2
 
Date/Time
WST
Temp
°C
App
Temp
°C
Dew
Point
°C
Rel
Hum
%
Delta-T
°C
Wind Press
QNH
hPa
Press
MSL
hPa
Rain since
9am
mm
Dir  Spd
km/h
Gust
km/h
Spd
kts
Gust
kts
25/11:30pm 16.2 16.1 14.9 92 0.8 SSE 9 15 5 8 - - 0.0
25/11:00pm 16.3 16.6 15.0 92 0.8 S 7 15 4 8 - - 0.0
25/10:30pm 16.4 16.3 14.9 91 0.9 SSE 9 15 5 8 - - 0.0
25/10:00pm 16.7 16.7 15.2 91 0.9 S 9 17 5 9 - - 0.0
25/09:30pm 16.9 16.9 15.2 90 1.0 S 9 13 5 7 - - 0.0

Other formats

Comma delimited format used in spreadsheet applications
http://www.bom.gov.au/fwo/IDW60801/IDW60801.94631.axf

JavaScript Object Notation format (JSON) in row-major order
http://www.bom.gov.au/fwo/IDW60801/IDW60801.94631.json

Data quality

Most of these data are generated automatically and are frequently updated. Quality checks on data are not normally performed. It is possible for incorrect values to appear. Refer to information at About Latest Weather Observations and please check the disclaimer before using these data.